createdAt,value
2022-08-17T00:00:34.182Z,20.40
2022-08-17T00:03:06.298Z,20.50
2022-08-17T00:05:41.168Z,20.40
2022-08-17T00:08:08.229Z,20.40
2022-08-17T00:10:35.529Z,20.40
2022-08-17T00:13:10.883Z,20.30
2022-08-17T00:15:37.921Z,20.30
2022-08-17T00:19:03.838Z,20.20
2022-08-17T00:20:53.287Z,20.10
2022-08-17T00:23:20.085Z,20.20
2022-08-17T00:25:47.648Z,20.10
2022-08-17T00:28:16.213Z,20.20
2022-08-17T00:30:51.061Z,20.20
2022-08-17T00:33:24.523Z,20.20
2022-08-17T00:35:51.976Z,20.20
2022-08-17T00:38:19.315Z,20.10
2022-08-17T00:40:50.519Z,20.10
2022-08-17T00:43:26.387Z,20.00
2022-08-17T00:45:53.569Z,20.00
2022-08-17T00:48:29.454Z,19.90
2022-08-17T00:51:02.917Z,19.90
2022-08-17T00:53:32.809Z,19.80
2022-08-17T00:56:03.046Z,19.80
2022-08-17T00:58:35.821Z,19.80
2022-08-17T01:01:06.601Z,19.80
2022-08-17T01:03:37.505Z,19.80
2022-08-17T01:06:06.187Z,19.80
2022-08-17T01:08:34.404Z,19.80
2022-08-17T01:11:02.473Z,19.70
2022-08-17T01:13:40.782Z,19.70
2022-08-17T01:16:08.427Z,19.70
2022-08-17T01:18:35.760Z,19.60
2022-08-17T01:21:10.221Z,19.50
2022-08-17T01:23:37.919Z,19.50
2022-08-17T01:26:06.287Z,19.50
2022-08-17T01:28:54.002Z,19.40
2022-08-17T01:31:22.957Z,19.40
2022-08-17T01:33:49.705Z,19.50
2022-08-17T01:36:16.450Z,19.40
2022-08-17T01:38:43.550Z,19.40
2022-08-17T01:41:14.451Z,19.30
2022-08-17T01:43:51.006Z,19.40
2022-08-17T01:46:23.281Z,19.30
2022-08-17T01:48:51.748Z,19.40
2022-08-17T01:51:19.886Z,19.30
2022-08-17T01:53:52.054Z,19.20
2022-08-17T01:56:23.043Z,19.20
2022-08-17T01:58:50.117Z,19.20
2022-08-17T02:01:22.941Z,19.30
2022-08-17T02:03:56.327Z,19.30
2022-08-17T02:06:29.367Z,19.30
2022-08-17T02:09:02.244Z,19.30
2022-08-17T02:11:33.184Z,19.20
2022-08-17T02:14:02.741Z,19.20
2022-08-17T02:16:37.288Z,19.20
2022-08-17T02:19:07.925Z,19.20
2022-08-17T02:21:36.118Z,19.10
2022-08-17T02:24:04.684Z,19.00
2022-08-17T02:26:31.998Z,19.00
2022-08-17T02:28:58.736Z,19.00
2022-08-17T02:31:25.434Z,19.00
2022-08-17T02:33:56.903Z,19.00
2022-08-17T02:36:31.830Z,19.00
2022-08-17T02:38:58.708Z,18.80
2022-08-17T02:41:25.659Z,18.80
2022-08-17T02:43:53.595Z,18.80
2022-08-17T02:46:20.367Z,18.80
2022-08-17T02:48:47.347Z,18.90
2022-08-17T02:51:14.415Z,18.80
2022-08-17T02:53:41.322Z,18.80
2022-08-17T02:56:08.378Z,18.80
2022-08-17T02:58:36.167Z,18.80
2022-08-17T03:01:07.852Z,18.80
2022-08-17T03:03:35.452Z,18.80
2022-08-17T03:06:03.657Z,18.80
2022-08-17T03:08:30.550Z,18.90
2022-08-17T03:10:57.557Z,18.90
2022-08-17T03:13:24.465Z,18.80
2022-08-17T03:15:51.692Z,18.80
2022-08-17T03:18:25.565Z,18.70
2022-08-17T03:20:59.127Z,18.60
2022-08-17T03:23:27.641Z,18.60
2022-08-17T03:25:57.093Z,18.40
2022-08-17T03:28:25.072Z,18.50
2022-08-17T03:30:52.545Z,18.40
2022-08-17T03:33:19.850Z,18.40
2022-08-17T03:35:46.794Z,18.40
2022-08-17T03:38:15.258Z,18.40
2022-08-17T03:40:56.674Z,18.50
2022-08-17T03:43:31.454Z,18.50
2022-08-17T03:46:33.265Z,18.40
2022-08-17T03:49:24.799Z,18.40
2022-08-17T03:52:10.974Z,18.30
2022-08-17T03:54:56.204Z,18.30
2022-08-17T03:57:23.736Z,18.20
2022-08-17T03:59:51.016Z,18.10
2022-08-17T04:02:24.177Z,18.10
2022-08-17T04:04:52.202Z,18.10
2022-08-17T04:07:20.415Z,18.00
2022-08-17T04:09:47.476Z,18.00
2022-08-17T04:12:19.607Z,18.10
2022-08-17T04:14:53.071Z,18.10
2022-08-17T04:17:24.112Z,18.20
2022-08-17T04:19:51.209Z,18.20
2022-08-17T04:22:31.262Z,18.20
2022-08-17T04:25:02.817Z,18.20
2022-08-17T04:27:29.616Z,18.20
2022-08-17T04:29:56.423Z,18.30
2022-08-17T04:32:59.279Z,18.40
2022-08-17T04:35:10.474Z,18.40
2022-08-17T04:37:37.281Z,18.50
2022-08-17T04:40:27.129Z,18.50
2022-08-17T04:43:02.777Z,18.60
2022-08-17T04:45:32.240Z,18.60
2022-08-17T04:48:00.958Z,18.70
2022-08-17T04:50:27.997Z,18.80
2022-08-17T04:52:56.501Z,18.80
2022-08-17T04:55:23.544Z,18.90
2022-08-17T04:57:50.280Z,19.10
2022-08-17T05:00:17.222Z,19.10
2022-08-17T05:02:50.934Z,19.20
2022-08-17T05:05:43.082Z,19.30
2022-08-17T05:08:09.897Z,19.50
2022-08-17T05:10:45.313Z,19.60
2022-08-17T05:13:16.224Z,19.70
2022-08-17T05:15:44.863Z,19.90
2022-08-17T05:18:12.506Z,20.00
2022-08-17T05:20:41.382Z,20.00
2022-08-17T05:23:11.115Z,20.10
2022-08-17T05:25:50.678Z,20.10
2022-08-17T05:28:24.170Z,20.20
2022-08-17T05:30:57.963Z,20.20
2022-08-17T05:33:28.040Z,20.30
2022-08-17T05:35:56.864Z,20.50
2022-08-17T05:38:25.830Z,20.60
2022-08-17T05:40:53.926Z,20.70
2022-08-17T05:43:24.202Z,20.90
2022-08-17T05:45:55.521Z,21.10
2022-08-17T05:48:39.116Z,21.20
2022-08-17T05:51:35.876Z,21.30
2022-08-17T05:54:25.867Z,21.60
2022-08-17T05:57:10.472Z,21.70
2022-08-17T05:59:58.670Z,21.70
2022-08-17T06:03:04.259Z,21.60
2022-08-17T06:05:51.450Z,21.60
2022-08-17T06:08:51.485Z,21.40
2022-08-17T06:11:22.785Z,21.40
2022-08-17T06:13:56.388Z,21.40
2022-08-17T06:16:34.383Z,21.40
2022-08-17T06:19:17.208Z,21.50
2022-08-17T06:21:47.916Z,21.60
2022-08-17T06:24:34.343Z,21.80
2022-08-17T06:27:38.944Z,22.10
2022-08-17T06:30:27.264Z,22.40
2022-08-17T06:33:01.283Z,22.80
2022-08-17T06:35:48.128Z,23.20
2022-08-17T06:38:41.333Z,23.50
2022-08-17T06:41:42.930Z,23.80
2022-08-17T06:44:43.402Z,24.00
2022-08-17T06:47:45.051Z,24.20
2022-08-17T06:50:21.365Z,24.10
2022-08-17T06:52:58.836Z,24.00
2022-08-17T06:55:37.892Z,23.80
2022-08-17T06:58:15.977Z,23.70
2022-08-17T07:00:46.930Z,23.60
2022-08-17T07:03:20.850Z,23.50
2022-08-17T07:06:12.425Z,23.30
2022-08-17T07:08:47.107Z,23.10
2022-08-17T07:11:19.290Z,23.10
2022-08-17T07:14:00.923Z,22.90
2022-08-17T07:16:39.572Z,22.80
2022-08-17T07:19:07.550Z,22.80
2022-08-17T07:22:20.625Z,22.70
2022-08-17T07:24:58.298Z,22.70
2022-08-17T07:27:50.931Z,22.80
2022-08-17T07:30:45.517Z,22.90
2022-08-17T07:33:58.491Z,23.00
2022-08-17T07:36:30.084Z,23.10
2022-08-17T07:38:58.367Z,23.10
2022-08-17T07:41:25.277Z,23.20
2022-08-17T07:44:15.295Z,23.20
2022-08-17T07:47:10.141Z,23.30
2022-08-17T07:49:41.097Z,23.20
2022-08-17T07:52:47.426Z,23.30
2022-08-17T07:54:59.179Z,23.50
2022-08-17T07:57:31.592Z,23.70
2022-08-17T08:00:01.662Z,24.00
2022-08-17T08:02:33.741Z,24.00
2022-08-17T08:05:12.914Z,24.30
2022-08-17T08:08:17.922Z,24.70
2022-08-17T08:10:59.489Z,24.90
2022-08-17T08:13:30.172Z,25.10
2022-08-17T08:16:20.547Z,25.20
2022-08-17T08:18:54.089Z,25.30
2022-08-17T08:21:49.104Z,25.40
2022-08-17T08:24:24.651Z,25.50
2022-08-17T08:27:16.001Z,25.70
2022-08-17T08:30:14.176Z,25.80
2022-08-17T08:32:55.321Z,25.90
2022-08-17T08:35:53.639Z,26.00
2022-08-17T08:38:27.208Z,26.10
2022-08-17T08:41:32.579Z,26.40
2022-08-17T08:44:13.549Z,26.60
2022-08-17T08:46:47.034Z,26.50
2022-08-17T08:50:02.833Z,26.40
2022-08-17T08:52:45.797Z,26.40
2022-08-17T08:55:21.025Z,26.30
2022-08-17T08:57:56.361Z,26.30
2022-08-17T09:00:26.652Z,26.30
2022-08-17T09:03:37.613Z,26.30
2022-08-17T09:06:32.616Z,26.20
2022-08-17T09:09:59.029Z,26.10
2022-08-17T09:12:55.298Z,25.90
2022-08-17T09:15:29.357Z,25.90
2022-08-17T09:18:59.087Z,25.80
2022-08-17T09:20:56.227Z,25.70
2022-08-17T09:23:34.198Z,25.70
2022-08-17T09:26:13.188Z,25.60
2022-08-17T09:28:44.763Z,25.60
2022-08-17T09:31:19.005Z,25.60
2022-08-17T09:33:48.892Z,25.70
2022-08-17T09:36:19.089Z,25.70
2022-08-17T09:39:13.112Z,25.70
2022-08-17T09:41:58.335Z,25.70
2022-08-17T09:44:47.311Z,25.80
2022-08-17T09:47:30.504Z,25.90
2022-08-17T09:50:08.811Z,26.20
2022-08-17T09:52:35.720Z,26.40
2022-08-17T09:55:02.610Z,26.50
2022-08-17T09:58:11.007Z,26.70
2022-08-17T10:00:46.976Z,26.70
2022-08-17T10:03:22.911Z,26.60
2022-08-17T10:06:07.707Z,26.40
2022-08-17T10:08:52.388Z,26.20
2022-08-17T10:12:09.257Z,26.00
2022-08-17T10:14:57.149Z,25.80
2022-08-17T10:17:37.888Z,25.70
2022-08-17T10:20:30.202Z,25.60
2022-08-17T10:23:24.995Z,25.70
2022-08-17T10:26:16.882Z,25.60
2022-08-17T10:28:53.453Z,25.50
2022-08-17T10:31:34.736Z,25.30
2022-08-17T10:34:20.636Z,24.70
2022-08-17T10:37:05.303Z,24.00
2022-08-17T10:39:52.139Z,23.40
2022-08-17T10:42:35.008Z,22.90
2022-08-17T10:45:18.406Z,22.80
2022-08-17T10:48:06.922Z,22.70
2022-08-17T10:51:07.415Z,22.80
2022-08-17T10:53:38.794Z,22.90
2022-08-17T10:56:13.357Z,23.10
2022-08-17T10:58:55.255Z,23.30
2022-08-17T11:02:04.133Z,23.40
2022-08-17T11:05:03.556Z,23.70
2022-08-17T11:07:49.235Z,24.10
2022-08-17T11:10:24.624Z,24.50
2022-08-17T11:12:59.233Z,24.90
2022-08-17T11:15:59.950Z,25.20
2022-08-17T11:18:56.679Z,25.50
2022-08-17T11:21:26.254Z,25.70
2022-08-17T11:24:11.712Z,25.80
2022-08-17T11:26:46.209Z,25.80
2022-08-17T11:29:28.117Z,26.10
2022-08-17T11:32:00.439Z,26.10
2022-08-17T11:34:29.917Z,26.40
2022-08-17T11:37:25.388Z,26.60
2022-08-17T11:40:05.935Z,26.80
2022-08-17T11:42:50.718Z,27.00
2022-08-17T11:45:54.844Z,27.20
2022-08-17T11:48:58.617Z,27.20
2022-08-17T11:51:54.283Z,27.30
2022-08-17T11:54:33.406Z,27.20
2022-08-17T11:57:21.425Z,27.40
2022-08-17T11:59:48.215Z,27.50
2022-08-17T12:02:31.770Z,27.60
2022-08-17T12:05:16.912Z,27.70
2022-08-17T12:07:57.736Z,27.70
2022-08-17T12:10:31.842Z,27.80
2022-08-17T12:13:04.346Z,27.90
2022-08-17T12:15:35.881Z,28.00
2022-08-17T12:18:02.607Z,28.20
2022-08-17T12:20:32.091Z,28.10
2022-08-17T12:23:06.565Z,28.20
2022-08-17T12:25:42.929Z,28.50
2022-08-17T12:28:28.867Z,28.60
2022-08-17T12:31:01.298Z,28.60
2022-08-17T12:33:28.858Z,28.60
2022-08-17T12:36:00.070Z,28.40
2022-08-17T12:38:32.263Z,28.30
2022-08-17T12:41:20.006Z,28.30
2022-08-17T12:44:15.408Z,28.20
2022-08-17T12:47:04.619Z,28.00
2022-08-17T12:49:35.557Z,27.70
2022-08-17T12:52:29.031Z,27.50
2022-08-17T12:55:08.229Z,27.40
2022-08-17T12:57:51.687Z,27.20
2022-08-17T13:00:24.930Z,27.00
2022-08-17T13:02:58.408Z,26.80
2022-08-17T13:05:25.152Z,26.80
2022-08-17T13:07:53.373Z,27.10
2022-08-17T13:10:32.456Z,27.40
2022-08-17T13:13:05.162Z,27.50
2022-08-17T13:15:35.075Z,27.90
2022-08-17T13:18:07.011Z,28.30
2022-08-17T13:20:35.078Z,28.50
2022-08-17T13:23:12.006Z,28.60
2022-08-17T13:25:39.481Z,28.60
2022-08-17T13:28:06.346Z,28.60
2022-08-17T13:30:33.679Z,28.70
2022-08-17T13:33:20.733Z,28.60
2022-08-17T13:36:06.383Z,28.60
2022-08-17T13:38:47.285Z,28.30
2022-08-17T13:41:36.698Z,28.20
2022-08-17T13:44:30.120Z,28.20
2022-08-17T13:46:57.375Z,28.00
2022-08-17T13:49:24.360Z,28.10
2022-08-17T13:52:31.372Z,28.10
2022-08-17T13:55:00.668Z,28.20
2022-08-17T13:57:27.733Z,28.30
2022-08-17T14:00:10.850Z,28.50
2022-08-17T14:02:37.653Z,28.50
2022-08-17T14:05:06.413Z,28.60
2022-08-17T14:07:37.324Z,28.80
2022-08-17T14:10:11.197Z,28.90
2022-08-17T14:12:40.403Z,29.00
2022-08-17T14:15:09.033Z,29.00
2022-08-17T14:17:38.906Z,29.10
2022-08-17T14:20:09.549Z,29.20
2022-08-17T14:22:38.742Z,29.20
2022-08-17T14:25:10.384Z,29.30
2022-08-17T14:27:47.132Z,29.40
2022-08-17T14:30:23.302Z,29.50
2022-08-17T14:32:51.881Z,29.40
2022-08-17T14:35:21.958Z,29.20
2022-08-17T14:37:50.050Z,29.20
2022-08-17T14:40:20.346Z,29.40
2022-08-17T14:42:47.292Z,29.50
2022-08-17T14:45:27.065Z,29.70
2022-08-17T14:48:01.023Z,29.70
2022-08-17T14:50:27.839Z,29.80
2022-08-17T14:52:56.247Z,29.90
2022-08-17T14:55:24.980Z,30.00
2022-08-17T14:57:51.943Z,29.90
2022-08-17T15:00:19.013Z,29.80
2022-08-17T15:02:53.840Z,29.80
2022-08-17T15:05:24.561Z,29.80
2022-08-17T15:07:52.804Z,30.00
2022-08-17T15:10:20.326Z,30.20
2022-08-17T15:12:47.740Z,30.60
2022-08-17T15:15:17.031Z,31.20
2022-08-17T15:17:45.910Z,31.70
2022-08-17T15:20:17.112Z,32.20
2022-08-17T15:22:44.804Z,32.80
2022-08-17T15:25:12.720Z,32.90
2022-08-17T15:27:40.273Z,32.70
2022-08-17T15:30:08.815Z,32.80
2022-08-17T15:32:38.515Z,33.00
2022-08-17T15:35:06.944Z,33.60
2022-08-17T15:37:33.735Z,34.10
2022-08-17T15:40:01.241Z,34.10
2022-08-17T15:42:29.187Z,33.80
2022-08-17T15:44:56.289Z,33.60
2022-08-17T15:47:24.835Z,33.60
2022-08-17T15:49:55.450Z,33.30
2022-08-17T15:52:27.927Z,33.00
2022-08-17T15:54:58.947Z,33.10
2022-08-17T15:57:26.894Z,33.00
2022-08-17T15:59:58.628Z,32.80
2022-08-17T16:03:14.822Z,32.60
2022-08-17T16:05:24.791Z,32.30
2022-08-17T16:07:52.728Z,32.20
2022-08-17T16:10:19.874Z,32.20
2022-08-17T16:12:48.920Z,32.20
2022-08-17T16:15:17.037Z,32.10
2022-08-17T16:17:43.930Z,32.10
2022-08-17T16:20:19.950Z,32.00
2022-08-17T16:22:49.733Z,32.00
2022-08-17T16:25:52.062Z,31.70
2022-08-17T16:28:15.802Z,31.50
2022-08-17T16:30:43.168Z,31.30
2022-08-17T16:33:15.019Z,31.00
2022-08-17T16:35:42.875Z,30.90
2022-08-17T16:38:10.806Z,30.70
2022-08-17T16:40:38.023Z,30.50
2022-08-17T16:43:10.563Z,30.40
2022-08-17T16:45:40.316Z,30.20
2022-08-17T16:48:08.624Z,30.10
2022-08-17T16:50:36.323Z,29.90
2022-08-17T16:53:14.029Z,29.80
2022-08-17T16:55:42.485Z,29.60
2022-08-17T16:58:09.239Z,29.60
2022-08-17T17:00:37.159Z,29.50
2022-08-17T17:03:19.566Z,29.30
2022-08-17T17:05:59.005Z,29.10
2022-08-17T17:08:30.846Z,29.00
2022-08-17T17:11:03.702Z,28.90
2022-08-17T17:13:43.259Z,28.70
2022-08-17T17:16:36.047Z,28.60
2022-08-17T17:19:10.145Z,28.50
2022-08-17T17:22:08.004Z,28.40
2022-08-17T17:24:57.319Z,28.30
2022-08-17T17:27:36.444Z,28.20
2022-08-17T17:30:24.216Z,28.20
2022-08-17T17:33:03.364Z,28.10
2022-08-17T17:35:53.976Z,27.90
2022-08-17T17:38:29.468Z,27.80
2022-08-17T17:41:02.902Z,27.70
2022-08-17T17:43:39.802Z,27.50
2022-08-17T17:46:27.815Z,27.40
2022-08-17T17:48:56.987Z,27.40
2022-08-17T17:52:06.777Z,27.20
2022-08-17T17:54:29.385Z,27.20
2022-08-17T17:57:22.242Z,27.10
2022-08-17T17:59:48.939Z,27.00
2022-08-17T18:02:47.411Z,26.80
2022-08-17T18:05:37.045Z,26.70
2022-08-17T18:08:31.880Z,26.70
2022-08-17T18:11:06.437Z,26.70
2022-08-17T18:13:50.111Z,26.70
2022-08-17T18:16:19.162Z,26.70
2022-08-17T18:18:52.043Z,26.50
2022-08-17T18:21:31.211Z,26.30
2022-08-17T18:24:01.210Z,26.20
2022-08-17T18:26:44.943Z,26.10
2022-08-17T18:29:31.908Z,26.00
2022-08-17T18:32:28.752Z,25.80
2022-08-17T18:35:02.900Z,25.70
2022-08-17T18:37:34.904Z,25.70
2022-08-17T18:40:16.789Z,25.50
2022-08-17T18:42:55.198Z,25.40
2022-08-17T18:45:34.218Z,25.40
2022-08-17T18:48:02.126Z,25.30
2022-08-17T18:50:39.544Z,25.20
2022-08-17T18:53:38.461Z,25.10
2022-08-17T18:56:42.376Z,25.00
2022-08-17T18:59:27.981Z,24.80
2022-08-17T19:02:24.848Z,24.60
2022-08-17T19:05:09.481Z,24.50
2022-08-17T19:07:42.738Z,24.30
2022-08-17T19:10:28.173Z,24.30
2022-08-17T19:13:23.958Z,24.10
2022-08-17T19:16:14.001Z,24.00
2022-08-17T19:18:52.734Z,23.90
2022-08-17T19:21:41.779Z,23.80
2022-08-17T19:24:19.544Z,23.70
2022-08-17T19:26:56.756Z,23.70
2022-08-17T19:29:27.100Z,23.70
2022-08-17T19:31:58.687Z,23.70
2022-08-17T19:34:33.175Z,23.60
2022-08-17T19:37:18.531Z,23.60
2022-08-17T19:40:04.281Z,23.50
2022-08-17T19:42:57.936Z,23.40
2022-08-17T19:45:35.655Z,23.30
2022-08-17T19:48:39.019Z,23.20
2022-08-17T19:51:15.444Z,23.10
2022-08-17T19:54:06.293Z,22.90
2022-08-17T19:57:01.665Z,22.80
2022-08-17T20:00:05.038Z,22.70
2022-08-17T20:02:43.346Z,22.70
2022-08-17T20:05:30.517Z,22.70
2022-08-17T20:08:14.925Z,22.70
2022-08-17T20:10:54.826Z,22.70
2022-08-17T20:13:35.102Z,22.70
2022-08-17T20:16:04.217Z,22.70
2022-08-17T20:18:47.638Z,22.70
2022-08-17T20:21:24.854Z,22.70
2022-08-17T20:24:18.352Z,22.60
2022-08-17T20:26:59.914Z,22.50
2022-08-17T20:29:54.042Z,22.40
2022-08-17T20:32:26.133Z,22.30
2022-08-17T20:35:16.754Z,22.20
2022-08-17T20:37:56.411Z,22.10
2022-08-17T20:40:27.166Z,22.10
2022-08-17T20:42:54.326Z,21.90
2022-08-17T20:45:21.208Z,21.80
2022-08-17T20:48:18.506Z,21.70
2022-08-17T20:50:50.605Z,21.70
2022-08-17T20:53:58.025Z,21.60
2022-08-17T20:56:48.900Z,21.60
2022-08-17T20:59:25.364Z,21.60
2022-08-17T21:02:18.082Z,21.50
2022-08-17T21:04:52.911Z,21.40
2022-08-17T21:07:43.224Z,21.30
2022-08-17T21:10:18.428Z,21.30
2022-08-17T21:12:54.014Z,21.20
2022-08-17T21:15:42.579Z,21.20
2022-08-17T21:18:40.389Z,21.10
2022-08-17T21:21:25.985Z,20.90
2022-08-17T21:24:19.284Z,21.00
2022-08-17T21:27:23.061Z,21.00
2022-08-17T21:30:01.545Z,21.00
2022-08-17T21:32:36.941Z,20.90
2022-08-17T21:35:26.076Z,20.90
2022-08-17T21:38:00.685Z,20.80
2022-08-17T21:40:31.124Z,20.80
2022-08-17T21:43:07.872Z,20.70
2022-08-17T21:45:38.799Z,20.80
2022-08-17T21:48:20.963Z,20.80
2022-08-17T21:51:12.129Z,20.80
2022-08-17T21:53:45.237Z,20.70
2022-08-17T21:56:21.061Z,20.80
2022-08-17T21:58:57.101Z,20.80
2022-08-17T22:01:27.287Z,20.70
2022-08-17T22:04:04.539Z,20.70
2022-08-17T22:06:36.573Z,20.70
2022-08-17T22:09:09.378Z,20.70
2022-08-17T22:11:52.615Z,20.60
2022-08-17T22:14:23.299Z,20.50
2022-08-17T22:17:05.897Z,20.50
2022-08-17T22:19:35.401Z,20.50
2022-08-17T22:22:28.375Z,20.50
2022-08-17T22:25:01.395Z,20.40
2022-08-17T22:27:45.701Z,20.30
2022-08-17T22:30:25.020Z,20.30
2022-08-17T22:32:52.017Z,20.30
2022-08-17T22:35:38.933Z,20.40
2022-08-17T22:38:20.877Z,20.50
2022-08-17T22:40:50.826Z,20.60
2022-08-17T22:43:21.274Z,20.70
2022-08-17T22:45:57.260Z,20.80
2022-08-17T22:48:27.826Z,20.90
2022-08-17T22:51:12.829Z,21.00
2022-08-17T22:54:31.843Z,21.10
2022-08-17T22:57:21.194Z,21.30
2022-08-17T22:59:50.940Z,21.30
2022-08-17T23:02:31.014Z,21.40
2022-08-17T23:05:10.251Z,21.60
2022-08-17T23:07:37.343Z,21.70
2022-08-17T23:10:06.387Z,21.80
2022-08-17T23:12:38.776Z,21.90
2022-08-17T23:15:19.247Z,22.00
2022-08-17T23:17:46.390Z,22.10
2022-08-17T23:20:15.623Z,22.10
2022-08-17T23:22:51.985Z,22.10
2022-08-17T23:25:26.765Z,22.20
2022-08-17T23:27:54.442Z,22.30
2022-08-17T23:30:25.542Z,22.30
2022-08-17T23:32:56.460Z,22.20
2022-08-17T23:35:40.013Z,22.20
2022-08-17T23:38:10.359Z,22.20
2022-08-17T23:40:37.899Z,22.10
2022-08-17T23:43:23.435Z,22.10
2022-08-17T23:45:53.475Z,22.10
2022-08-17T23:48:28.484Z,22.10
2022-08-17T23:51:09.690Z,22.00
2022-08-17T23:53:42.083Z,22.00
2022-08-17T23:56:11.192Z,21.90
2022-08-17T23:58:43.304Z,21.80
